Time;durP1;ratioP1;P1;durP2;ratioP2;P2;SDS_P1;SDS_P2;PMS_P1;PMS_P2;Temp;Humidity;BMP_temperature;BMP_pressure;BME280_temperature;BME280_humidity;BME280_pressure;Samples;Min_cycle;Max_cycle;Signal;HPM_P1;HPM_P2
2022/06/29 00:02:17;;;;;;;5.47;3.20;;;17.90;99.90;;;;;;5037155;28;20572;-78
2022/06/29 00:04:43;;;;;;;5.20;3.00;;;17.90;99.90;;;;;;5040838;28;20045;-78
2022/06/29 00:07:09;;;;;;;7.47;3.22;;;17.90;99.90;;;;;;5038045;28;20033;-79
2022/06/29 00:09:34;;;;;;;6.07;3.28;;;17.90;99.90;;;;;;5043134;28;20049;-78
2022/06/29 00:12:00;;;;;;;7.72;3.28;;;17.80;99.90;;;;;;5027643;28;20041;-78
2022/06/29 00:14:25;;;;;;;4.43;3.00;;;17.80;99.90;;;;;;5042998;28;20033;-79
2022/06/29 00:16:51;;;;;;;5.50;3.30;;;17.80;99.90;;;;;;5042666;28;20033;-80
2022/06/29 00:19:17;;;;;;;5.28;2.90;;;17.70;99.90;;;;;;5043912;28;20021;-78
2022/06/29 00:21:42;;;;;;;5.30;3.10;;;17.70;99.90;;;;;;5043104;28;20140;-79
2022/06/29 00:24:08;;;;;;;7.32;3.17;;;17.70;99.90;;;;;;5043193;28;20388;-78
2022/06/29 00:26:33;;;;;;;5.38;3.10;;;17.70;99.90;;;;;;5028207;28;20040;-79
2022/06/29 00:28:59;;;;;;;7.28;3.65;;;17.60;99.90;;;;;;5028588;28;20029;-79
2022/06/29 00:31:24;;;;;;;7.05;3.30;;;17.60;99.90;;;;;;5028302;28;20097;-79
2022/06/29 00:33:50;;;;;;;5.47;3.30;;;17.60;99.90;;;;;;5043234;28;20127;-80
2022/06/29 00:36:16;;;;;;;5.20;3.10;;;17.50;99.90;;;;;;5041886;28;20046;-79
2022/06/29 00:38:41;;;;;;;4.53;3.20;;;17.40;99.90;;;;;;5028722;28;20083;-80
2022/06/29 00:41:07;;;;;;;4.65;3.70;;;17.40;99.90;;;;;;5042077;28;20498;-78
2022/06/29 00:43:42;;;;;;;5.20;3.20;;;17.40;99.90;;;;;;5044042;28;20041;-80
2022/06/29 00:46:08;;;;;;;5.43;3.28;;;17.40;99.90;;;;;;5032833;28;20487;-79
2022/06/29 00:48:36;;;;;;;6.68;3.47;;;17.30;99.90;;;;;;5027219;28;20037;-79
2022/06/29 00:51:03;;;;;;;6.72;3.65;;;17.30;99.90;;;;;;5042918;28;20086;-79
2022/06/29 00:53:33;;;;;;;4.85;3.47;;;17.20;99.90;;;;;;5026694;28;20041;-78
2022/06/29 00:56:01;;;;;;;5.20;3.50;;;17.20;99.90;;;;;;5028870;28;20058;-79
2022/06/29 00:58:28;;;;;;;7.88;3.60;;;17.10;99.90;;;;;;5029916;28;20044;-80
2022/06/29 01:01:00;;;;;;;4.15;3.50;;;17.10;99.90;;;;;;5030406;28;20037;-79
2022/06/29 01:03:25;;;;;;;5.85;3.55;;;17.10;99.90;;;;;;5046843;28;20044;-79
2022/06/29 01:05:51;;;;;;;7.38;3.60;;;17.10;99.90;;;;;;5029953;28;20040;-80
2022/06/29 01:08:17;;;;;;;7.38;3.70;;;17.00;99.90;;;;;;5045170;28;20522;-78
2022/06/29 01:10:42;;;;;;;4.95;3.35;;;17.00;99.90;;;;;;5057717;28;20036;-79
2022/06/29 01:13:10;;;;;;;6.80;3.67;;;17.00;99.90;;;;;;5045825;28;20041;-79
2022/06/29 01:15:36;;;;;;;5.60;3.85;;;17.00;99.90;;;;;;5046467;28;20503;-78
2022/06/29 01:18:02;;;;;;;4.85;3.83;;;16.90;99.90;;;;;;5028489;28;20042;-79
2022/06/29 01:20:27;;;;;;;6.05;4.03;;;16.90;99.90;;;;;;5032321;28;20045;-79
2022/06/29 01:22:54;;;;;;;7.30;3.88;;;16.90;99.90;;;;;;5046805;28;20085;-79
2022/06/29 01:25:20;;;;;;;5.03;3.70;;;16.90;99.90;;;;;;5026619;28;20040;-79
2022/06/29 01:27:46;;;;;;;5.88;3.63;;;16.90;99.90;;;;;;5030240;28;20040;-80
2022/06/29 01:30:12;;;;;;;6.28;3.80;;;16.90;99.90;;;;;;5046444;28;20095;-78
2022/06/29 01:32:38;;;;;;;6.53;3.90;;;16.90;99.90;;;;;;5044968;28;20496;-79
2022/06/29 01:35:07;;;;;;;5.28;3.70;;;16.90;99.90;;;;;;5045262;28;20132;-78
2022/06/29 01:37:33;;;;;;;8.15;3.90;;;16.90;99.90;;;;;;5045223;28;20441;-79
2022/06/29 01:39:58;;;;;;;7.13;4.00;;;16.90;99.90;;;;;;5045743;28;20033;-79
2022/06/29 01:42:24;;;;;;;5.82;3.92;;;16.90;99.90;;;;;;5028545;28;20044;-78
2022/06/29 01:44:49;;;;;;;6.50;3.90;;;17.00;99.90;;;;;;5045106;28;20037;-79
2022/06/29 01:47:15;;;;;;;6.40;3.90;;;16.90;99.90;;;;;;5028971;28;20099;-80
2022/06/29 01:49:41;;;;;;;5.90;4.15;;;16.90;99.90;;;;;;5047916;28;20049;-78
2022/06/29 01:52:06;;;;;;;5.85;3.97;;;17.00;99.90;;;;;;5029369;28;20119;-80
2022/06/29 01:54:32;;;;;;;7.00;4.15;;;17.00;99.90;;;;;;5045386;28;20536;-80
2022/06/29 01:56:57;;;;;;;5.18;3.88;;;17.00;99.90;;;;;;5043892;28;20037;-79
2022/06/29 01:59:23;;;;;;;6.03;3.67;;;17.00;99.90;;;;;;5046365;28;20461;-79
2022/06/29 02:01:49;;;;;;;5.78;4.10;;;16.90;99.90;;;;;;5044720;28;20345;-80
2022/06/29 02:04:15;;;;;;;6.15;3.97;;;17.00;99.90;;;;;;5044715;28;20048;-81
2022/06/29 02:06:40;;;;;;;6.72;4.10;;;17.00;99.90;;;;;;5043000;28;20045;-80
2022/06/29 02:09:06;;;;;;;7.07;3.75;;;17.00;99.90;;;;;;5046115;28;20059;-79
2022/06/29 02:11:31;;;;;;;4.55;3.65;;;17.00;99.90;;;;;;5045267;28;20068;-79
2022/06/29 02:13:57;;;;;;;7.38;4.00;;;17.00;99.90;;;;;;5044553;28;20044;-79
2022/06/29 02:16:22;;;;;;;5.75;4.20;;;17.00;99.90;;;;;;5044479;28;20518;-80
2022/06/29 02:18:48;;;;;;;7.07;4.00;;;17.00;99.90;;;;;;5046175;28;20082;-79
2022/06/29 02:21:14;;;;;;;5.07;4.30;;;16.90;99.90;;;;;;5028575;28;20048;-79
2022/06/29 02:23:40;;;;;;;5.40;3.97;;;16.90;99.90;;;;;;5044008;28;20037;-78
2022/06/29 02:26:06;;;;;;;6.30;4.50;;;16.90;99.90;;;;;;5042339;28;20508;-78
2022/06/29 02:28:32;;;;;;;5.50;4.57;;;16.90;99.90;;;;;;5030058;28;20045;-79
2022/06/29 02:36:27;;;;;;;;;;;16.80;99.90;;;;;;5055756;28;20037;-79
2022/06/29 02:38:52;;;;;;;6.40;4.40;;;16.80;99.90;;;;;;5027608;28;20379;-78
2022/06/29 02:41:18;;;;;;;6.53;4.68;;;16.80;99.90;;;;;;5046328;28;20045;-78
2022/06/29 02:43:45;;;;;;;6.47;4.70;;;16.80;99.90;;;;;;5042367;28;20082;-79
2022/06/29 02:46:10;;;;;;;5.65;4.75;;;16.80;99.90;;;;;;5029361;28;20041;-78
2022/06/29 02:48:36;;;;;;;6.20;4.72;;;16.80;99.90;;;;;;5026916;28;20512;-79
2022/06/29 02:51:01;;;;;;;6.53;4.75;;;16.70;99.90;;;;;;5045372;28;20025;-78
2022/06/29 02:53:27;;;;;;;5.80;4.35;;;16.70;99.90;;;;;;5050648;28;20045;-79
2022/06/29 02:55:53;;;;;;;8.20;5.15;;;16.60;99.90;;;;;;5027447;28;20029;-79
2022/06/29 02:58:18;;;;;;;7.00;4.97;;;16.70;99.90;;;;;;5040807;28;20147;-78
2022/06/29 03:00:44;;;;;;;8.80;5.55;;;16.70;99.90;;;;;;5042367;28;20188;-79
2022/06/29 03:03:10;;;;;;;8.60;4.75;;;16.60;99.90;;;;;;5043381;28;20491;-80
2022/06/29 03:05:35;;;;;;;7.10;4.85;;;16.60;99.90;;;;;;5027762;28;20064;-80
2022/06/29 03:08:01;;;;;;;7.35;4.60;;;16.60;99.90;;;;;;5028921;28;20499;-79
2022/06/29 03:10:26;;;;;;;8.70;5.07;;;16.60;99.90;;;;;;5043480;28;20095;-78
2022/06/29 03:12:52;;;;;;;8.52;5.25;;;16.50;99.90;;;;;;5043042;28;20040;-80
2022/06/29 03:15:18;;;;;;;7.68;5.10;;;16.50;99.90;;;;;;5027060;28;20554;-80
2022/06/29 03:17:43;;;;;;;9.90;4.75;;;16.50;99.90;;;;;;5028228;28;20131;-79
2022/06/29 03:20:10;;;;;;;7.40;5.20;;;16.50;99.90;;;;;;5043087;28;20089;-79
2022/06/29 03:22:35;;;;;;;6.80;5.25;;;16.50;99.90;;;;;;5042946;28;20659;-78
2022/06/29 03:25:01;;;;;;;6.43;4.82;;;16.50;99.90;;;;;;5042956;28;20037;-78
2022/06/29 03:27:27;;;;;;;7.63;4.95;;;16.40;99.90;;;;;;5029851;28;20037;-79
2022/06/29 03:29:52;;;;;;;7.35;4.97;;;16.50;99.90;;;;;;5043754;28;20042;-79
2022/06/29 03:32:18;;;;;;;8.20;5.20;;;16.40;99.90;;;;;;5044472;28;20134;-79
2022/06/29 03:34:43;;;;;;;9.10;5.30;;;16.50;99.90;;;;;;5043625;28;20044;-79
2022/06/29 03:37:09;;;;;;;5.63;4.78;;;16.40;99.90;;;;;;5044286;28;20037;-78
2022/06/29 03:39:35;;;;;;;6.70;5.57;;;16.40;99.90;;;;;;5043498;28;20119;-78
2022/06/29 03:42:01;;;;;;;6.20;4.97;;;16.30;99.90;;;;;;5041931;28;20171;-80
2022/06/29 03:44:27;;;;;;;6.55;5.20;;;16.30;99.90;;;;;;5041101;28;20528;-80
2022/06/29 03:46:52;;;;;;;9.35;5.30;;;16.30;99.90;;;;;;5027793;28;20786;-80
2022/06/29 03:49:18;;;;;;;8.18;5.25;;;16.30;99.90;;;;;;5026217;28;20041;-79
2022/06/29 03:51:43;;;;;;;6.20;5.53;;;16.30;99.90;;;;;;5043024;28;20040;-80
2022/06/29 03:54:09;;;;;;;7.90;5.45;;;16.30;99.90;;;;;;5027628;28;20037;-79
2022/06/29 03:56:34;;;;;;;8.25;5.50;;;16.20;99.90;;;;;;5028943;28;20512;-79
2022/06/29 03:59:00;;;;;;;8.30;5.55;;;16.20;99.90;;;;;;5043698;28;21016;-79
2022/06/29 04:01:25;;;;;;;6.82;5.88;;;16.20;99.90;;;;;;5043015;28;20045;-79
2022/06/29 04:03:51;;;;;;;7.80;5.75;;;16.20;99.90;;;;;;5035600;28;20032;-79
2022/06/29 04:06:17;;;;;;;7.30;5.22;;;16.20;99.90;;;;;;5052886;28;20765;-79
2022/06/29 04:08:42;;;;;;;9.05;5.88;;;16.20;99.90;;;;;;5028301;28;20146;-79
2022/06/29 04:11:48;;;;;;;7.95;6.07;;;16.20;99.90;;;;;;5041551;28;20037;-79
2022/06/29 04:13:54;;;;;;;8.75;6.03;;;16.10;99.90;;;;;;5042550;28;20045;-78
2022/06/29 04:16:20;;;;;;;7.95;6.03;;;16.10;99.90;;;;;;5037285;28;20060;-80
2022/06/29 04:18:45;;;;;;;6.53;5.85;;;16.10;99.90;;;;;;5042572;28;20106;-78
2022/06/29 04:21:11;;;;;;;8.35;6.20;;;16.00;99.90;;;;;;5040958;28;20060;-81
2022/06/29 04:23:36;;;;;;;9.18;6.10;;;16.10;99.90;;;;;;5028089;28;20207;-80
2022/06/29 04:26:02;;;;;;;10.77;6.68;;;16.10;99.90;;;;;;5043549;28;20044;-78
2022/06/29 04:28:27;;;;;;;10.20;6.90;;;16.10;99.90;;;;;;5029466;28;20051;-80
2022/06/29 04:30:53;;;;;;;7.88;6.65;;;16.10;99.90;;;;;;5047201;28;20040;-80
2022/06/29 04:33:19;;;;;;;7.47;6.05;;;16.20;99.90;;;;;;5030281;28;20071;-79
2022/06/29 04:35:44;;;;;;;9.73;7.20;;;16.30;99.90;;;;;;5046390;28;20043;-78
2022/06/29 04:38:10;;;;;;;9.82;6.70;;;16.40;99.90;;;;;;5045842;28;20045;-78
2022/06/29 04:40:35;;;;;;;9.73;6.78;;;16.50;99.90;;;;;;5047440;28;20029;-79
2022/06/29 04:43:01;;;;;;;8.27;6.65;;;16.40;99.90;;;;;;5046377;28;20048;-79
2022/06/29 04:48:10;;;;;;;;;;;16.60;99.90;;;;;;5044487;28;20045;-79
2022/06/29 04:50:36;;;;;;;8.05;6.22;;;16.50;99.90;;;;;;5029332;28;19924;-79
2022/06/29 04:53:01;;;;;;;8.65;6.85;;;16.50;99.90;;;;;;5046469;28;21595;-81
2022/06/29 04:55:29;;;;;;;10.38;7.18;;;16.60;99.90;;;;;;5045452;28;20037;-77
2022/06/29 04:57:55;;;;;;;9.15;6.60;;;16.60;99.90;;;;;;5043963;28;20067;-79
2022/06/29 05:00:20;;;;;;;7.90;6.50;;;16.70;99.90;;;;;;5028990;28;20055;-80
2022/06/29 05:02:46;;;;;;;10.63;6.63;;;16.80;99.90;;;;;;5044197;28;20095;-78
2022/06/29 05:05:12;;;;;;;8.38;6.57;;;16.80;99.90;;;;;;5044278;28;20499;-80
2022/06/29 05:07:37;;;;;;;7.65;6.72;;;16.90;99.90;;;;;;5045981;28;20037;-79
2022/06/29 05:10:03;;;;;;;9.35;6.82;;;16.90;99.90;;;;;;5044916;28;20033;-79
2022/06/29 05:12:29;;;;;;;10.70;6.82;;;17.00;99.90;;;;;;5046893;28;20044;-77
2022/06/29 05:14:54;;;;;;;8.93;6.68;;;17.00;99.90;;;;;;5046243;28;20079;-79
2022/06/29 05:17:20;;;;;;;7.63;6.18;;;17.10;99.90;;;;;;5045484;28;20033;-79
2022/06/29 05:19:46;;;;;;;7.88;6.60;;;17.10;99.90;;;;;;5031183;28;20506;-80
2022/06/29 05:22:12;;;;;;;8.10;6.38;;;17.10;99.90;;;;;;5046254;28;20037;-79
2022/06/29 05:24:38;;;;;;;9.70;7.30;;;17.20;99.90;;;;;;5029844;28;20033;-79
2022/06/29 05:27:05;;;;;;;9.70;6.93;;;17.20;99.90;;;;;;5044636;28;20061;-78
2022/06/29 05:29:31;;;;;;;9.35;6.50;;;17.30;99.90;;;;;;5029850;28;20041;-80
2022/06/29 05:31:56;;;;;;;8.77;6.93;;;17.30;99.90;;;;;;5044358;28;20033;-80
2022/06/29 05:34:22;;;;;;;7.45;6.47;;;17.40;99.90;;;;;;5028438;28;20102;-79
2022/06/29 05:36:47;;;;;;;8.98;6.50;;;17.50;99.90;;;;;;5045792;28;20063;-79
2022/06/29 05:39:13;;;;;;;7.88;6.80;;;17.50;99.90;;;;;;5030088;28;20048;-80
2022/06/29 05:41:39;;;;;;;7.93;6.28;;;17.50;99.90;;;;;;5045747;28;20411;-79
2022/06/29 05:44:04;;;;;;;8.50;6.47;;;17.60;99.90;;;;;;5046604;28;20037;-80
2022/06/29 05:46:31;;;;;;;7.85;5.90;;;17.60;99.90;;;;;;5041942;28;20042;-79
2022/06/29 05:48:56;;;;;;;7.15;5.60;;;17.60;99.90;;;;;;5029751;28;21773;-77
2022/06/29 05:51:22;;;;;;;8.63;6.10;;;17.70;99.90;;;;;;5052867;28;20041;-78
2022/06/29 05:53:49;;;;;;;7.50;6.07;;;17.90;99.90;;;;;;5045461;28;20067;-78
2022/06/29 05:56:15;;;;;;;9.05;5.65;;;18.00;99.90;;;;;;5028189;28;20478;-78
2022/06/29 05:58:40;;;;;;;6.60;5.95;;;18.10;99.90;;;;;;5049302;28;20102;-78
2022/06/29 06:01:09;;;;;;;6.18;5.55;;;18.30;99.90;;;;;;5049538;28;20443;-79
2022/06/29 06:03:34;;;;;;;11.45;5.50;;;18.40;99.90;;;;;;5043574;28;20458;-78
2022/06/29 06:06:00;;;;;;;8.73;5.68;;;18.50;99.90;;;;;;5052169;28;20059;-79
2022/06/29 06:08:25;;;;;;;9.07;5.93;;;18.70;99.90;;;;;;5033022;28;20029;-78
2022/06/29 06:10:51;;;;;;;8.68;5.05;;;18.80;99.90;;;;;;5050066;28;20036;-80
2022/06/29 06:13:16;;;;;;;9.15;5.25;;;19.00;99.90;;;;;;5045427;28;20392;-79
2022/06/29 06:15:42;;;;;;;7.03;4.72;;;19.10;99.90;;;;;;5031852;28;20041;-79
2022/06/29 06:18:07;;;;;;;7.38;4.90;;;19.30;99.90;;;;;;5050617;28;20037;-78
2022/06/29 06:20:33;;;;;;;8.32;4.43;;;19.40;99.90;;;;;;5051687;28;20041;-78
2022/06/29 06:22:58;;;;;;;6.00;4.30;;;19.50;99.90;;;;;;5051968;28;20392;-80
2022/06/29 06:25:24;;;;;;;6.15;4.03;;;19.70;99.90;;;;;;5035535;28;20040;-79
2022/06/29 06:27:50;;;;;;;6.72;4.07;;;19.80;99.90;;;;;;5036861;28;20461;-77
2022/06/29 06:30:15;;;;;;;6.22;3.75;;;19.90;99.90;;;;;;5030840;28;20057;-77
2022/06/29 06:32:41;;;;;;;5.18;3.60;;;20.00;99.90;;;;;;5054071;28;20033;-81
2022/06/29 06:35:07;;;;;;;5.07;3.53;;;20.00;99.90;;;;;;5045462;28;20040;-80
2022/06/29 06:37:32;;;;;;;6.53;3.60;;;20.10;99.90;;;;;;5044878;28;20041;-79
2022/06/29 06:42:42;;;;;;;6.82;3.60;;;20.30;99.90;;;;;;5047825;28;20040;-81
2022/06/29 06:45:08;;;;;;;6.65;3.78;;;20.40;99.90;;;;;;5029142;28;20395;-79
2022/06/29 06:47:33;;;;;;;5.22;3.40;;;20.50;99.90;;;;;;5046163;28;20469;-80
2022/06/29 06:49:59;;;;;;;4.90;3.35;;;20.50;99.90;;;;;;5047611;28;20041;-81
2022/06/29 06:52:24;;;;;;;5.53;3.53;;;20.60;99.90;;;;;;5046030;28;20033;-78
2022/06/29 06:54:50;;;;;;;6.68;3.33;;;20.80;99.90;;;;;;5045700;28;20148;-79
2022/06/29 06:57:16;;;;;;;5.43;3.20;;;20.80;99.90;;;;;;5048310;28;20415;-80
2022/06/29 06:59:41;;;;;;;8.15;3.33;;;21.00;99.90;;;;;;5043746;28;20415;-80
2022/06/29 07:02:07;;;;;;;4.32;2.65;;;21.10;99.90;;;;;;5036651;28;20068;-80
2022/06/29 07:04:32;;;;;;;5.40;2.70;;;21.20;99.90;;;;;;5033000;28;20064;-78
2022/06/29 07:06:58;;;;;;;4.82;2.85;;;21.20;99.90;;;;;;5017091;28;20044;-79
2022/06/29 07:09:24;;;;;;;5.07;2.88;;;21.30;99.90;;;;;;5033959;28;20063;-79
2022/06/29 07:11:49;;;;;;;3.65;2.83;;;21.40;99.90;;;;;;5051290;28;20037;-79
2022/06/29 07:14:15;;;;;;;4.40;2.90;;;21.50;99.90;;;;;;5026750;28;20052;-80
2022/06/29 07:16:40;;;;;;;5.65;2.83;;;21.70;99.90;;;;;;5033691;28;20076;-80
2022/06/29 07:19:06;;;;;;;5.82;3.22;;;21.70;99.90;;;;;;5038389;28;20061;-80
2022/06/29 07:21:32;;;;;;;3.88;2.78;;;21.80;99.90;;;;;;5052528;28;20123;-78
2022/06/29 07:23:59;;;;;;;4.78;2.50;;;21.90;99.90;;;;;;5051387;28;20051;-78
2022/06/29 07:26:25;;;;;;;3.78;2.50;;;21.90;99.90;;;;;;5033063;28;20033;-77
2022/06/29 07:28:51;;;;;;;4.65;2.30;;;22.10;99.90;;;;;;5032741;28;20092;-78
2022/06/29 07:31:16;;;;;;;4.18;2.33;;;22.10;99.90;;;;;;5032142;28;20038;-80
2022/06/29 07:33:42;;;;;;;4.40;2.35;;;22.30;99.90;;;;;;5032552;28;20037;-80
2022/06/29 07:36:08;;;;;;;5.72;2.63;;;22.40;99.90;;;;;;5034505;28;20037;-79
2022/06/29 07:38:35;;;;;;;4.70;2.20;;;22.50;99.90;;;;;;5016888;28;20077;-80
2022/06/29 07:41:01;;;;;;;4.28;2.22;;;22.60;99.90;;;;;;5032010;28;20038;-80
2022/06/29 07:43:28;;;;;;;4.03;2.13;;;22.70;99.90;;;;;;5032688;28;20396;-79
2022/06/29 07:45:57;;;;;;;3.47;2.17;;;22.80;99.90;;;;;;5015307;28;20115;-77
2022/06/29 07:48:23;;;;;;;3.97;2.22;;;22.80;99.90;;;;;;5032656;28;20033;-79
2022/06/29 07:50:48;;;;;;;4.38;2.10;;;22.90;99.90;;;;;;5032747;28;20483;-80
2022/06/29 07:53:14;;;;;;;4.93;2.13;;;23.00;99.90;;;;;;5031969;28;20099;-78
2022/06/29 07:55:40;;;;;;;5.18;1.80;;;23.10;99.90;;;;;;5009807;28;20038;-77
2022/06/29 07:58:06;;;;;;;4.13;1.90;;;23.20;99.90;;;;;;5045236;28;20036;-79
2022/06/29 08:00:32;;;;;;;7.18;2.25;;;23.20;99.90;;;;;;5031707;28;20041;-78
2022/06/29 08:02:58;;;;;;;4.47;2.22;;;23.40;99.90;;;;;;5048620;28;20041;-78
2022/06/29 08:05:24;;;;;;;4.85;1.88;;;23.50;99.90;;;;;;5047874;28;20048;-79
2022/06/29 08:07:50;;;;;;;5.00;2.13;;;23.60;99.90;;;;;;5022451;28;20033;-78
2022/06/29 08:10:15;;;;;;;7.47;2.20;;;23.70;99.90;;;;;;5031815;28;20037;-78
2022/06/29 08:12:41;;;;;;;4.88;1.55;;;23.80;99.90;;;;;;5049370;28;20037;-80
2022/06/29 08:15:07;;;;;;;3.55;1.80;;;23.90;99.90;;;;;;5032185;28;20410;-79
2022/06/29 08:17:33;;;;;;;3.35;2.03;;;24.00;99.90;;;;;;5020585;28;20087;-79
2022/06/29 08:19:59;;;;;;;2.47;1.80;;;24.10;99.90;;;;;;5031451;28;20045;-79
2022/06/29 08:22:24;;;;;;;3.85;1.80;;;24.20;99.90;;;;;;5032589;28;20068;-79
2022/06/29 08:24:50;;;;;;;3.38;1.67;;;24.20;99.90;;;;;;5029298;28;20045;-79
2022/06/29 08:27:20;;;;;;;6.07;1.70;;;24.10;99.90;;;;;;5029818;28;20096;-78
2022/06/29 08:29:46;;;;;;;3.72;1.70;;;24.00;99.90;;;;;;5047967;28;20053;-79
2022/06/29 08:32:12;;;;;;;3.85;1.73;;;24.10;99.90;;;;;;5032256;28;20128;-79
2022/06/29 08:37:03;;;;;;;5.40;1.80;;;24.10;99.90;;;;;;5030984;28;20042;-81
2022/06/29 08:39:28;;;;;;;4.38;1.65;;;24.00;99.90;;;;;;5034127;28;20036;-77
2022/06/29 08:41:57;;;;;;;4.03;2.00;;;24.00;99.90;;;;;;5049085;28;20033;-79
2022/06/29 08:44:23;;;;;;;5.03;1.60;;;24.00;99.90;;;;;;5033152;28;20318;-79
2022/06/29 08:46:48;;;;;;;4.75;1.90;;;24.10;99.90;;;;;;5035061;28;20045;-79
2022/06/29 08:49:14;;;;;;;3.85;1.80;;;24.20;99.90;;;;;;5033569;28;20049;-78
2022/06/29 08:51:40;;;;;;;2.60;1.70;;;24.30;99.90;;;;;;5046629;28;20406;-78
2022/06/29 08:54:06;;;;;;;2.53;1.77;;;24.40;99.90;;;;;;5032485;28;20072;-78
2022/06/29 08:56:34;;;;;;;3.30;1.80;;;24.40;99.90;;;;;;5049658;28;20451;-77
2022/06/29 08:59:01;;;;;;;4.07;1.88;;;24.50;99.90;;;;;;5045229;28;20060;-78
2022/06/29 09:01:28;;;;;;;4.05;1.77;;;24.40;99.90;;;;;;5042539;28;20123;-78
2022/06/29 09:03:54;;;;;;;2.55;1.70;;;24.40;99.90;;;;;;5042791;28;20037;-79
2022/06/29 09:06:20;;;;;;;3.28;1.70;;;24.40;99.90;;;;;;5042639;28;20036;-78
2022/06/29 09:08:45;;;;;;;3.90;1.92;;;24.40;99.90;;;;;;5045164;28;20091;-78
2022/06/29 09:11:28;;;;;;;3.97;1.83;;;24.30;99.90;;;;;;5027922;28;20139;-79
2022/06/29 09:14:10;;;;;;;3.10;1.60;;;24.30;99.90;;;;;;5030026;28;20128;-78
2022/06/29 09:16:53;;;;;;;3.90;1.80;;;24.40;99.90;;;;;;5032557;28;20503;-79
2022/06/29 09:19:21;;;;;;;3.13;1.67;;;24.30;99.90;;;;;;5032971;28;20036;-77
2022/06/29 09:21:54;;;;;;;2.58;1.67;;;24.30;99.90;;;;;;5039339;28;20119;-79
2022/06/29 09:24:24;;;;;;;4.03;1.60;;;24.30;99.90;;;;;;5032665;28;20041;-78
2022/06/29 09:26:51;;;;;;;5.20;1.85;;;24.30;99.90;;;;;;5037389;28;20040;-78
2022/06/29 09:29:39;;;;;;;3.45;1.60;;;24.40;99.90;;;;;;5045781;28;20037;-77
2022/06/29 09:32:05;;;;;;;2.22;1.60;;;24.50;99.90;;;;;;5049665;28;20080;-78
2022/06/29 09:34:31;;;;;;;2.42;1.63;;;24.70;99.90;;;;;;5034124;28;20502;-79
2022/06/29 09:36:58;;;;;;;4.28;1.90;;;24.80;99.90;;;;;;5033921;28;20407;-79
2022/06/29 09:39:39;;;;;;;6.85;1.90;;;24.90;99.90;;;;;;5053882;28;20044;-78
2022/06/29 09:42:11;;;;;;;3.05;1.80;;;25.00;99.90;;;;;;5029893;28;20116;-79
2022/06/29 09:44:37;;;;;;;3.08;1.58;;;25.10;99.90;;;;;;5045121;28;20045;-76
2022/06/29 09:47:22;;;;;;;3.53;1.90;;;25.20;99.90;;;;;;5051790;28;20120;-81
2022/06/29 09:49:53;;;;;;;2.25;1.60;;;25.30;99.90;;;;;;5046455;28;20040;-79
2022/06/29 09:52:19;;;;;;;5.82;1.70;;;25.40;99.00;;;;;;5041360;28;20106;-80
2022/06/29 09:54:57;;;;;;;4.03;1.90;;;25.60;99.90;;;;;;5031790;28;20033;-79
2022/06/29 09:57:27;;;;;;;4.35;1.80;;;25.60;99.80;;;;;;5048101;28;20043;-81
2022/06/29 10:02:45;;;;;;;3.30;1.65;;;25.80;99.90;;;;;;5041993;28;20041;-80
2022/06/29 10:05:25;;;;;;;3.35;1.75;;;26.00;99.90;;;;;;5035938;28;20044;-78
2022/06/29 10:07:54;;;;;;;3.85;1.80;;;26.00;99.80;;;;;;5026616;28;20394;-79
2022/06/29 10:10:25;;;;;;;3.30;1.45;;;26.00;99.70;;;;;;5037654;28;20040;-79
2022/06/29 10:16:14;;;;;;;3.15;1.77;;;26.30;99.90;;;;;;5033613;28;20057;-79
2022/06/29 10:18:52;;;;;;;3.03;1.60;;;26.40;99.00;;;;;;5036011;28;20041;-80
2022/06/29 10:21:23;;;;;;;7.13;1.95;;;26.50;99.40;;;;;;5037636;28;20042;-79
2022/06/29 10:23:53;;;;;;;5.18;1.70;;;26.60;98.00;;;;;;5051042;28;20064;-78
2022/06/29 10:26:30;;;;;;;4.05;1.80;;;26.70;98.50;;;;;;5035340;28;20037;-77
2022/06/29 10:28:57;;;;;;;3.60;1.92;;;26.70;97.30;;;;;;5042037;28;20075;-81
2022/06/29 10:32:00;;;;;;;2.88;1.70;;;26.80;96.70;;;;;;5047355;28;20068;-80
2022/06/29 10:34:31;;;;;;;3.50;1.80;;;26.90;96.60;;;;;;5048355;28;20041;-80
2022/06/29 10:37:02;;;;;;;4.40;1.70;;;26.80;95.70;;;;;;5035484;28;20037;-80
2022/06/29 10:39:43;;;;;;;2.50;1.48;;;26.90;95.60;;;;;;5056153;28;20041;-79
2022/06/29 10:45:16;;;;;;;4.68;1.85;;;27.10;95.80;;;;;;5049911;28;20060;-77
2022/06/29 10:47:54;;;;;;;2.80;1.67;;;27.20;96.10;;;;;;5033795;28;20041;-77
2022/06/29 10:50:21;;;;;;;3.67;1.77;;;27.20;94.30;;;;;;5034967;28;20564;-78
2022/06/29 10:52:48;;;;;;;4.25;1.83;;;27.40;95.10;;;;;;5032233;28;20048;-78
2022/06/29 10:55:15;;;;;;;4.15;1.88;;;27.70;94.80;;;;;;5033134;28;20053;-79
2022/06/29 10:57:42;;;;;;;2.85;1.63;;;27.90;94.60;;;;;;5029815;28;20048;-79
2022/06/29 11:00:14;;;;;;;1.80;1.50;;;28.00;94.50;;;;;;5031583;28;20037;-79
2022/06/29 11:02:42;;;;;;;2.15;1.65;;;28.10;93.60;;;;;;5039772;28;20033;-79
2022/06/29 11:05:08;;;;;;;5.60;1.77;;;28.20;94.00;;;;;;5024114;28;20099;-78
2022/06/29 11:13:03;;;;;;;4.50;1.63;;;28.20;94.10;;;;;;5050062;28;20055;-80
2022/06/29 11:15:40;;;;;;;3.03;1.67;;;28.20;94.00;;;;;;5042792;28;20384;-79
2022/06/29 11:18:07;;;;;;;3.08;1.70;;;28.30;93.50;;;;;;5047702;28;20033;-78
2022/06/29 11:20:33;;;;;;;3.13;1.38;;;28.40;93.20;;;;;;5049517;28;20049;-77
2022/06/29 11:22:58;;;;;;;2.33;1.35;;;28.40;92.70;;;;;;5044685;28;20047;-78
2022/06/29 11:25:26;;;;;;;3.40;1.30;;;28.50;92.30;;;;;;5050428;28;20037;-76
2022/06/29 11:27:51;;;;;;;4.15;1.58;;;28.50;91.60;;;;;;5046788;28;20406;-78
2022/06/29 11:30:22;;;;;;;2.58;1.40;;;28.50;91.70;;;;;;5034790;28;20041;-79
2022/06/29 11:32:49;;;;;;;3.20;1.42;;;28.50;91.60;;;;;;5043741;28;20084;-79
2022/06/29 11:35:23;;;;;;;2.28;1.45;;;28.60;91.50;;;;;;5046725;28;20098;-78
2022/06/29 11:37:52;;;;;;;3.35;1.30;;;28.80;91.30;;;;;;5057565;28;20033;-78
2022/06/29 11:40:19;;;;;;;3.20;1.23;;;28.90;91.40;;;;;;5052053;28;20112;-79
2022/06/29 11:45:36;;;;;;;2.50;1.30;;;29.20;91.90;;;;;;5039102;28;20095;-81
2022/06/29 11:48:12;;;;;;;3.28;1.77;;;29.40;91.40;;;;;;5044039;28;20123;-78
2022/06/29 11:50:52;;;;;;;3.88;1.75;;;29.50;91.00;;;;;;5043505;28;20042;-79
2022/06/29 11:53:36;;;;;;;3.47;1.40;;;29.60;87.30;;;;;;5033991;28;20039;-78
2022/06/29 11:56:09;;;;;;;3.13;1.40;;;29.80;91.10;;;;;;5034889;28;20065;-78
2022/06/29 11:58:35;;;;;;;2.83;1.38;;;29.80;90.40;;;;;;5047002;28;20081;-79
2022/06/29 12:01:01;;;;;;;3.42;1.55;;;29.70;90.00;;;;;;5031581;28;20088;-77
2022/06/29 12:03:27;;;;;;;4.15;1.42;;;29.70;89.70;;;;;;5043665;28;20459;-77
2022/06/29 12:06:00;;;;;;;2.88;1.60;;;30.00;89.80;;;;;;5041157;28;20045;-79
2022/06/29 12:08:29;;;;;;;4.18;1.55;;;30.10;86.70;;;;;;5042878;28;20043;-76
2022/06/29 12:10:56;;;;;;;5.55;1.60;;;30.00;87.60;;;;;;5046777;28;20049;-76
2022/06/29 12:13:21;;;;;;;3.75;1.67;;;30.20;88.40;;;;;;5038072;28;20068;-76
2022/06/29 12:15:47;;;;;;;4.20;1.60;;;30.30;86.30;;;;;;5044042;28;20075;-77
2022/06/29 12:18:13;;;;;;;2.50;1.50;;;30.50;86.30;;;;;;5028741;28;20037;-79
2022/06/29 12:20:39;;;;;;;3.83;1.48;;;30.80;85.90;;;;;;5037396;28;20120;-77
2022/06/29 12:23:05;;;;;;;2.40;1.70;;;31.00;85.70;;;;;;5036179;28;20168;-77
2022/06/29 12:25:30;;;;;;;4.57;1.70;;;31.20;86.70;;;;;;5048173;28;20041;-78
2022/06/29 12:27:56;;;;;;;4.18;1.85;;;31.10;83.90;;;;;;5032840;28;20033;-80
2022/06/29 12:30:21;;;;;;;2.50;1.70;;;31.00;82.40;;;;;;5045349;28;20106;-78
2022/06/29 12:32:47;;;;;;;2.10;1.58;;;30.90;82.60;;;;;;5036817;28;20048;-79
2022/06/29 12:35:13;;;;;;;4.05;1.80;;;31.10;83.50;;;;;;5048234;28;20048;-77
2022/06/29 12:37:43;;;;;;;3.95;1.80;;;31.00;83.80;;;;;;5045701;28;20100;-77
2022/06/29 12:40:11;;;;;;;3.22;2.00;;;31.10;84.20;;;;;;5048169;28;20079;-77
2022/06/29 12:42:37;;;;;;;2.30;2.00;;;31.30;85.00;;;;;;5046185;28;20521;-77
2022/06/29 12:45:03;;;;;;;3.10;2.00;;;31.20;84.60;;;;;;5044970;28;20064;-77
2022/06/29 12:47:30;;;;;;;3.38;2.00;;;31.30;84.40;;;;;;5026020;28;20041;-78
2022/06/29 12:49:55;;;;;;;3.30;2.08;;;31.30;84.00;;;;;;5044958;28;20040;-77
2022/06/29 12:52:23;;;;;;;4.82;2.38;;;31.40;84.60;;;;;;5045386;28;20045;-77
2022/06/29 12:54:49;;;;;;;2.78;2.22;;;31.40;84.80;;;;;;5043691;28;20046;-77
2022/06/29 12:57:16;;;;;;;3.35;2.08;;;31.60;85.60;;;;;;5030349;28;20036;-77
2022/06/29 12:59:42;;;;;;;5.68;2.70;;;31.50;85.20;;;;;;5046870;28;20095;-78
2022/06/29 13:02:08;;;;;;;3.25;2.40;;;31.60;83.50;;;;;;5034669;28;20029;-77
2022/06/29 13:04:34;;;;;;;3.20;2.42;;;31.70;82.90;;;;;;5034069;28;20388;-78
2022/06/29 13:06:59;;;;;;;4.50;2.47;;;31.60;81.30;;;;;;5034328;28;20129;-78
2022/06/29 13:09:25;;;;;;;3.53;2.40;;;31.50;81.50;;;;;;5035052;28;20037;-78
2022/06/29 13:11:51;;;;;;;3.67;2.30;;;31.50;81.40;;;;;;5034760;28;20081;-77
2022/06/29 13:14:16;;;;;;;5.13;2.47;;;31.60;81.50;;;;;;5032885;28;20049;-77
2022/06/29 13:16:42;;;;;;;4.65;2.67;;;31.70;82.10;;;;;;5033241;28;20550;-78
2022/06/29 13:19:08;;;;;;;4.18;2.60;;;31.80;81.10;;;;;;5034130;28;20438;-78